EHFZ

F16-a Sea

F16-a Sea, The Netherlands
METAR EHFZ 240125Z AUTO 06020KT 9999 NCD 11/10 Q1025 W///H///
Observed Flight Rules
May-24 @ 01:25 UTC (44 minutes ago) Visual Flight Rules
Wind Visibility Clouds
60° at 20 knots 10,000+ meters
  • Clear skies
Temperatures Readings
Current 11°C / 52°F
Dewpoint 10°C / 50°F
Humidity 94%
Altimeter 30.27" Hg
Pressure 1025 hPa
Elevation 50
METAR EHFZ 240125Z AUTO 06020KT 9999 NCD 11/10 Q1025 W///H///
Observed Flight Rules
May-24 @ 01:25 UTC
(44 minutes ago)
VFR
Wind Visibility
60° at 20 knots 10,000+ meters
Clouds
  • Clear skies
Temperature Dewpoint
11°C / 52°F 10°C / 50°F
Humidity Altimeter Pressure
94% 30.27" Hg 1025 hPa